sensor_id;sensor_type;location;lat;lon;timestamp;temperature;humidity
12887;DHT22;6511;49.746;6.094;2023-01-08T00:00:29;8.90;99.90
12887;DHT22;6511;49.746;6.094;2023-01-08T00:02:54;8.90;99.90
12887;DHT22;6511;49.746;6.094;2023-01-08T00:05:20;8.90;99.90
12887;DHT22;6511;49.746;6.094;2023-01-08T00:07:45;9.00;99.90
12887;DHT22;6511;49.746;6.094;2023-01-08T00:10:11;9.00;99.90
12887;DHT22;6511;49.746;6.094;2023-01-08T00:12:36;8.90;99.90
12887;DHT22;6511;49.746;6.094;2023-01-08T00:15:02;8.90;99.90
12887;DHT22;6511;49.746;6.094;2023-01-08T00:17:28;8.90;99.90
12887;DHT22;6511;49.746;6.094;2023-01-08T00:19:53;8.80;99.90
12887;DHT22;6511;49.746;6.094;2023-01-08T00:22:19;8.80;99.90
12887;DHT22;6511;49.746;6.094;2023-01-08T00:24:44;8.80;99.90
12887;DHT22;6511;49.746;6.094;2023-01-08T00:27:10;8.80;99.90
12887;DHT22;6511;49.746;6.094;2023-01-08T00:29:36;8.80;99.90
12887;DHT22;6511;49.746;6.094;2023-01-08T00:32:02;8.80;99.90
12887;DHT22;6511;49.746;6.094;2023-01-08T00:34:28;8.80;99.90
12887;DHT22;6511;49.746;6.094;2023-01-08T00:36:53;8.80;99.90
12887;DHT22;6511;49.746;6.094;2023-01-08T00:39:19;8.80;99.90
12887;DHT22;6511;49.746;6.094;2023-01-08T00:41:45;8.80;99.90
12887;DHT22;6511;49.746;6.094;2023-01-08T00:44:10;8.80;99.90
12887;DHT22;6511;49.746;6.094;2023-01-08T00:46:36;8.70;99.90
12887;DHT22;6511;49.746;6.094;2023-01-08T00:49:02;8.80;99.90
12887;DHT22;6511;49.746;6.094;2023-01-08T00:51:27;8.70;99.90
12887;DHT22;6511;49.746;6.094;2023-01-08T00:53:53;8.60;99.90
12887;DHT22;6511;49.746;6.094;2023-01-08T00:56:18;8.70;99.90
12887;DHT22;6511;49.746;6.094;2023-01-08T00:58:44;8.70;99.90
12887;DHT22;6511;49.746;6.094;2023-01-08T01:01:13;8.70;99.90
12887;DHT22;6511;49.746;6.094;2023-01-08T01:03:39;8.70;99.90
12887;DHT22;6511;49.746;6.094;2023-01-08T01:06:06;8.70;99.90
12887;DHT22;6511;49.746;6.094;2023-01-08T01:08:33;8.70;99.90
12887;DHT22;6511;49.746;6.094;2023-01-08T01:10:58;8.70;99.90
12887;DHT22;6511;49.746;6.094;2023-01-08T01:13:24;8.60;99.90
12887;DHT22;6511;49.746;6.094;2023-01-08T01:16:00;8.60;99.90
12887;DHT22;6511;49.746;6.094;2023-01-08T01:18:26;8.60;99.90
12887;DHT22;6511;49.746;6.094;2023-01-08T01:20:51;8.60;99.90
12887;DHT22;6511;49.746;6.094;2023-01-08T01:23:17;8.60;99.90
12887;DHT22;6511;49.746;6.094;2023-01-08T01:25:43;8.60;99.90
12887;DHT22;6511;49.746;6.094;2023-01-08T01:28:08;8.60;99.90
12887;DHT22;6511;49.746;6.094;2023-01-08T01:30:34;8.60;99.90
12887;DHT22;6511;49.746;6.094;2023-01-08T01:32:59;8.60;99.90
12887;DHT22;6511;49.746;6.094;2023-01-08T01:35:25;8.60;99.90
12887;DHT22;6511;49.746;6.094;2023-01-08T01:37:50;8.60;99.90
12887;DHT22;6511;49.746;6.094;2023-01-08T01:40:16;8.60;99.90
12887;DHT22;6511;49.746;6.094;2023-01-08T01:42:42;8.60;99.90
12887;DHT22;6511;49.746;6.094;2023-01-08T01:47:41;8.50;99.90
12887;DHT22;6511;49.746;6.094;2023-01-08T01:50:12;8.50;99.90
12887;DHT22;6511;49.746;6.094;2023-01-08T01:53:00;8.50;99.90
12887;DHT22;6511;49.746;6.094;2023-01-08T01:55:28;8.50;99.90
12887;DHT22;6511;49.746;6.094;2023-01-08T01:58:07;8.50;99.90
12887;DHT22;6511;49.746;6.094;2023-01-08T02:00:36;8.50;99.90
12887;DHT22;6511;49.746;6.094;2023-01-08T02:03:03;8.50;99.90
12887;DHT22;6511;49.746;6.094;2023-01-08T02:14:52;8.50;99.90
12887;DHT22;6511;49.746;6.094;2023-01-08T02:17:37;8.50;99.90
12887;DHT22;6511;49.746;6.094;2023-01-08T02:20:11;8.40;99.90
12887;DHT22;6511;49.746;6.094;2023-01-08T02:23:19;8.50;99.90
12887;DHT22;6511;49.746;6.094;2023-01-08T02:28:37;8.40;99.90
12887;DHT22;6511;49.746;6.094;2023-01-08T02:31:05;8.30;99.90
12887;DHT22;6511;49.746;6.094;2023-01-08T02:33:31;8.40;99.90
12887;DHT22;6511;49.746;6.094;2023-01-08T02:38:43;8.40;99.90
12887;DHT22;6511;49.746;6.094;2023-01-08T02:41:10;8.40;99.90
12887;DHT22;6511;49.746;6.094;2023-01-08T02:43:44;8.40;99.90
12887;DHT22;6511;49.746;6.094;2023-01-08T02:46:14;8.40;99.90
12887;DHT22;6511;49.746;6.094;2023-01-08T02:48:45;8.40;99.90
12887;DHT22;6511;49.746;6.094;2023-01-08T02:51:23;8.40;99.90
12887;DHT22;6511;49.746;6.094;2023-01-08T02:53:56;8.40;99.90
12887;DHT22;6511;49.746;6.094;2023-01-08T02:56:27;8.40;99.90
12887;DHT22;6511;49.746;6.094;2023-01-08T02:58:55;8.30;99.90
12887;DHT22;6511;49.746;6.094;2023-01-08T03:01:22;8.30;99.90
12887;DHT22;6511;49.746;6.094;2023-01-08T03:03:53;8.40;99.90
12887;DHT22;6511;49.746;6.094;2023-01-08T03:06:20;8.40;99.90
12887;DHT22;6511;49.746;6.094;2023-01-08T03:08:49;8.40;99.90
12887;DHT22;6511;49.746;6.094;2023-01-08T03:11:18;8.40;99.90
12887;DHT22;6511;49.746;6.094;2023-01-08T03:14:01;8.30;99.90
12887;DHT22;6511;49.746;6.094;2023-01-08T03:16:37;8.30;99.90
12887;DHT22;6511;49.746;6.094;2023-01-08T03:19:08;8.30;99.90
12887;DHT22;6511;49.746;6.094;2023-01-08T03:21:36;8.20;99.90
12887;DHT22;6511;49.746;6.094;2023-01-08T03:24:03;8.20;99.90
12887;DHT22;6511;49.746;6.094;2023-01-08T03:26:31;8.20;99.90
12887;DHT22;6511;49.746;6.094;2023-01-08T03:28:57;8.20;99.90
12887;DHT22;6511;49.746;6.094;2023-01-08T03:31:26;8.30;99.90
12887;DHT22;6511;49.746;6.094;2023-01-08T03:33:53;8.30;99.90
12887;DHT22;6511;49.746;6.094;2023-01-08T03:36:22;8.20;99.90
12887;DHT22;6511;49.746;6.094;2023-01-08T03:39:00;8.20;99.90
12887;DHT22;6511;49.746;6.094;2023-01-08T03:41:30;8.20;99.90
12887;DHT22;6511;49.746;6.094;2023-01-08T03:43:57;8.20;99.90
12887;DHT22;6511;49.746;6.094;2023-01-08T03:46:30;8.20;99.90
12887;DHT22;6511;49.746;6.094;2023-01-08T03:48:58;8.30;99.90
12887;DHT22;6511;49.746;6.094;2023-01-08T03:51:24;8.20;99.90
12887;DHT22;6511;49.746;6.094;2023-01-08T03:53:52;8.20;99.90
12887;DHT22;6511;49.746;6.094;2023-01-08T03:56:18;8.20;99.90
12887;DHT22;6511;49.746;6.094;2023-01-08T03:58:44;8.20;99.90
12887;DHT22;6511;49.746;6.094;2023-01-08T04:01:09;8.20;99.90
12887;DHT22;6511;49.746;6.094;2023-01-08T04:03:36;8.30;99.90
12887;DHT22;6511;49.746;6.094;2023-01-08T04:06:01;8.30;99.90
12887;DHT22;6511;49.746;6.094;2023-01-08T04:08:27;8.30;99.90
12887;DHT22;6511;49.746;6.094;2023-01-08T04:10:53;8.30;99.90
12887;DHT22;6511;49.746;6.094;2023-01-08T04:13:18;8.30;99.90
12887;DHT22;6511;49.746;6.094;2023-01-08T04:15:48;8.30;99.90
12887;DHT22;6511;49.746;6.094;2023-01-08T04:18:14;8.40;99.90
12887;DHT22;6511;49.746;6.094;2023-01-08T04:20:44;8.30;99.90
12887;DHT22;6511;49.746;6.094;2023-01-08T04:23:09;8.30;99.90
12887;DHT22;6511;49.746;6.094;2023-01-08T04:25:36;8.30;99.90
12887;DHT22;6511;49.746;6.094;2023-01-08T04:28:03;8.30;99.90
12887;DHT22;6511;49.746;6.094;2023-01-08T04:30:28;8.30;99.90
12887;DHT22;6511;49.746;6.094;2023-01-08T04:32:54;8.30;99.90
12887;DHT22;6511;49.746;6.094;2023-01-08T04:35:19;8.30;99.90
12887;DHT22;6511;49.746;6.094;2023-01-08T04:37:45;8.30;99.90
12887;DHT22;6511;49.746;6.094;2023-01-08T04:40:10;8.30;99.90
12887;DHT22;6511;49.746;6.094;2023-01-08T04:42:36;8.30;99.90
12887;DHT22;6511;49.746;6.094;2023-01-08T04:45:01;8.30;99.90
12887;DHT22;6511;49.746;6.094;2023-01-08T04:47:27;8.20;99.90
12887;DHT22;6511;49.746;6.094;2023-01-08T04:49:52;8.20;99.90
12887;DHT22;6511;49.746;6.094;2023-01-08T04:52:18;8.20;99.90
12887;DHT22;6511;49.746;6.094;2023-01-08T04:54:43;8.20;99.90
12887;DHT22;6511;49.746;6.094;2023-01-08T04:57:09;8.20;99.90
12887;DHT22;6511;49.746;6.094;2023-01-08T04:59:34;8.20;99.90
12887;DHT22;6511;49.746;6.094;2023-01-08T05:02:00;8.20;99.90
12887;DHT22;6511;49.746;6.094;2023-01-08T05:04:26;8.10;99.90
12887;DHT22;6511;49.746;6.094;2023-01-08T05:06:51;8.10;99.90
12887;DHT22;6511;49.746;6.094;2023-01-08T05:09:17;8.20;99.90
12887;DHT22;6511;49.746;6.094;2023-01-08T05:11:42;8.20;99.90
12887;DHT22;6511;49.746;6.094;2023-01-08T05:14:08;8.20;99.90
12887;DHT22;6511;49.746;6.094;2023-01-08T05:16:33;8.20;99.90
12887;DHT22;6511;49.746;6.094;2023-01-08T05:18:59;8.20;99.90
12887;DHT22;6511;49.746;6.094;2023-01-08T05:21:25;8.20;99.90
12887;DHT22;6511;49.746;6.094;2023-01-08T05:23:50;8.20;99.90
12887;DHT22;6511;49.746;6.094;2023-01-08T05:26:16;8.30;99.90
12887;DHT22;6511;49.746;6.094;2023-01-08T05:28:43;8.30;99.90
12887;DHT22;6511;49.746;6.094;2023-01-08T05:31:09;8.30;99.90
12887;DHT22;6511;49.746;6.094;2023-01-08T05:33:36;8.30;99.90
12887;DHT22;6511;49.746;6.094;2023-01-08T05:36:07;8.30;99.90
12887;DHT22;6511;49.746;6.094;2023-01-08T05:38:33;8.20;99.90
12887;DHT22;6511;49.746;6.094;2023-01-08T05:40:59;8.30;99.90
12887;DHT22;6511;49.746;6.094;2023-01-08T05:43:25;8.30;99.90
12887;DHT22;6511;49.746;6.094;2023-01-08T05:45:50;8.30;99.90
12887;DHT22;6511;49.746;6.094;2023-01-08T05:48:16;8.30;99.90
12887;DHT22;6511;49.746;6.094;2023-01-08T05:50:42;8.30;99.90
12887;DHT22;6511;49.746;6.094;2023-01-08T05:53:08;8.30;99.90
12887;DHT22;6511;49.746;6.094;2023-01-08T05:55:34;8.30;99.90
12887;DHT22;6511;49.746;6.094;2023-01-08T05:58:01;8.30;99.90
12887;DHT22;6511;49.746;6.094;2023-01-08T06:00:28;8.20;99.90
12887;DHT22;6511;49.746;6.094;2023-01-08T06:02:55;8.30;99.90
12887;DHT22;6511;49.746;6.094;2023-01-08T06:05:20;8.30;99.90
12887;DHT22;6511;49.746;6.094;2023-01-08T06:07:46;8.30;99.90
12887;DHT22;6511;49.746;6.094;2023-01-08T06:10:11;8.30;99.90
12887;DHT22;6511;49.746;6.094;2023-01-08T06:12:37;8.30;99.90
12887;DHT22;6511;49.746;6.094;2023-01-08T06:15:03;8.30;99.90
12887;DHT22;6511;49.746;6.094;2023-01-08T06:17:30;8.30;99.90
12887;DHT22;6511;49.746;6.094;2023-01-08T06:19:56;8.20;99.90
12887;DHT22;6511;49.746;6.094;2023-01-08T06:22:21;8.20;99.90
12887;DHT22;6511;49.746;6.094;2023-01-08T06:24:47;8.20;99.90
12887;DHT22;6511;49.746;6.094;2023-01-08T06:27:12;8.20;99.90
12887;DHT22;6511;49.746;6.094;2023-01-08T06:29:38;8.20;99.90
12887;DHT22;6511;49.746;6.094;2023-01-08T06:32:04;8.20;99.90
12887;DHT22;6511;49.746;6.094;2023-01-08T06:34:29;8.20;99.90
12887;DHT22;6511;49.746;6.094;2023-01-08T06:36:55;8.20;99.90
12887;DHT22;6511;49.746;6.094;2023-01-08T06:39:20;8.20;99.90
12887;DHT22;6511;49.746;6.094;2023-01-08T06:41:46;8.20;99.90
12887;DHT22;6511;49.746;6.094;2023-01-08T06:44:11;8.20;99.90
12887;DHT22;6511;49.746;6.094;2023-01-08T06:46:37;8.20;99.90
12887;DHT22;6511;49.746;6.094;2023-01-08T06:49:08;8.20;99.90
12887;DHT22;6511;49.746;6.094;2023-01-08T06:51:34;8.20;99.90
12887;DHT22;6511;49.746;6.094;2023-01-08T06:54:00;8.20;99.90
12887;DHT22;6511;49.746;6.094;2023-01-08T06:56:25;8.20;99.90
12887;DHT22;6511;49.746;6.094;2023-01-08T06:58:51;8.10;99.90
12887;DHT22;6511;49.746;6.094;2023-01-08T07:01:17;8.20;99.90
12887;DHT22;6511;49.746;6.094;2023-01-08T07:03:42;8.20;99.90
12887;DHT22;6511;49.746;6.094;2023-01-08T07:06:14;8.20;99.90
12887;DHT22;6511;49.746;6.094;2023-01-08T07:08:41;8.10;99.90
12887;DHT22;6511;49.746;6.094;2023-01-08T07:11:07;8.20;99.90
12887;DHT22;6511;49.746;6.094;2023-01-08T07:13:32;8.10;99.90
12887;DHT22;6511;49.746;6.094;2023-01-08T07:16:03;8.10;99.90
12887;DHT22;6511;49.746;6.094;2023-01-08T07:18:28;8.10;99.90
12887;DHT22;6511;49.746;6.094;2023-01-08T07:20:54;8.10;99.90
12887;DHT22;6511;49.746;6.094;2023-01-08T07:23:19;8.10;99.90
12887;DHT22;6511;49.746;6.094;2023-01-08T07:25:45;8.10;99.90
12887;DHT22;6511;49.746;6.094;2023-01-08T07:28:12;8.10;99.90
12887;DHT22;6511;49.746;6.094;2023-01-08T07:30:37;8.10;99.90
12887;DHT22;6511;49.746;6.094;2023-01-08T07:33:03;8.10;99.90
12887;DHT22;6511;49.746;6.094;2023-01-08T07:35:29;8.10;99.90
12887;DHT22;6511;49.746;6.094;2023-01-08T07:37:54;8.10;99.90
12887;DHT22;6511;49.746;6.094;2023-01-08T07:40:20;8.00;99.90
12887;DHT22;6511;49.746;6.094;2023-01-08T07:42:46;8.00;99.90
12887;DHT22;6511;49.746;6.094;2023-01-08T07:45:12;8.00;99.90
12887;DHT22;6511;49.746;6.094;2023-01-08T07:47:38;8.00;99.90
12887;DHT22;6511;49.746;6.094;2023-01-08T07:50:04;8.00;99.90
12887;DHT22;6511;49.746;6.094;2023-01-08T07:52:29;8.00;99.90
12887;DHT22;6511;49.746;6.094;2023-01-08T07:54:55;8.00;99.90
12887;DHT22;6511;49.746;6.094;2023-01-08T07:57:21;8.00;99.90
12887;DHT22;6511;49.746;6.094;2023-01-08T07:59:46;8.00;99.90
12887;DHT22;6511;49.746;6.094;2023-01-08T08:02:12;8.00;99.90
12887;DHT22;6511;49.746;6.094;2023-01-08T08:04:38;8.00;99.90
12887;DHT22;6511;49.746;6.094;2023-01-08T08:07:03;8.00;99.90
12887;DHT22;6511;49.746;6.094;2023-01-08T08:09:29;8.00;99.90
12887;DHT22;6511;49.746;6.094;2023-01-08T08:11:54;8.00;99.90
12887;DHT22;6511;49.746;6.094;2023-01-08T08:14:20;8.00;99.90
12887;DHT22;6511;49.746;6.094;2023-01-08T08:16:46;8.00;99.90
12887;DHT22;6511;49.746;6.094;2023-01-08T08:19:11;8.00;99.90
12887;DHT22;6511;49.746;6.094;2023-01-08T08:21:37;8.00;99.90
12887;DHT22;6511;49.746;6.094;2023-01-08T08:24:03;8.00;99.90
12887;DHT22;6511;49.746;6.094;2023-01-08T08:26:29;8.00;99.90
12887;DHT22;6511;49.746;6.094;2023-01-08T08:28:55;8.00;99.90
12887;DHT22;6511;49.746;6.094;2023-01-08T08:31:20;8.00;99.90
12887;DHT22;6511;49.746;6.094;2023-01-08T08:33:46;8.00;99.90
12887;DHT22;6511;49.746;6.094;2023-01-08T08:36:12;8.00;99.90
12887;DHT22;6511;49.746;6.094;2023-01-08T08:38:37;8.00;99.90
12887;DHT22;6511;49.746;6.094;2023-01-08T08:41:04;8.10;99.90
12887;DHT22;6511;49.746;6.094;2023-01-08T08:43:32;8.10;99.90
12887;DHT22;6511;49.746;6.094;2023-01-08T08:45:58;8.10;99.90
12887;DHT22;6511;49.746;6.094;2023-01-08T08:48:24;8.10;99.90
12887;DHT22;6511;49.746;6.094;2023-01-08T08:50:50;8.10;99.90
12887;DHT22;6511;49.746;6.094;2023-01-08T08:53:16;8.10;99.90
12887;DHT22;6511;49.746;6.094;2023-01-08T08:55:42;8.10;99.90
12887;DHT22;6511;49.746;6.094;2023-01-08T08:58:10;8.10;99.90
12887;DHT22;6511;49.746;6.094;2023-01-08T09:00:40;8.10;99.90
12887;DHT22;6511;49.746;6.094;2023-01-08T09:03:07;8.10;99.90
12887;DHT22;6511;49.746;6.094;2023-01-08T09:05:35;8.10;99.90
12887;DHT22;6511;49.746;6.094;2023-01-08T09:08:01;8.20;99.90
12887;DHT22;6511;49.746;6.094;2023-01-08T09:10:26;8.20;99.90
12887;DHT22;6511;49.746;6.094;2023-01-08T09:12:52;8.20;99.90
12887;DHT22;6511;49.746;6.094;2023-01-08T09:15:18;8.10;99.90
12887;DHT22;6511;49.746;6.094;2023-01-08T09:17:44;8.20;99.90
12887;DHT22;6511;49.746;6.094;2023-01-08T09:20:09;8.20;99.90
12887;DHT22;6511;49.746;6.094;2023-01-08T09:22:35;8.20;99.90
12887;DHT22;6511;49.746;6.094;2023-01-08T09:25:01;8.20;99.90
12887;DHT22;6511;49.746;6.094;2023-01-08T09:27:26;8.20;99.90
12887;DHT22;6511;49.746;6.094;2023-01-08T09:29:52;8.20;99.90
12887;DHT22;6511;49.746;6.094;2023-01-08T09:32:17;8.20;99.90
12887;DHT22;6511;49.746;6.094;2023-01-08T09:34:43;8.20;99.90
12887;DHT22;6511;49.746;6.094;2023-01-08T09:37:09;8.30;99.90
12887;DHT22;6511;49.746;6.094;2023-01-08T09:39:35;8.30;99.90
12887;DHT22;6511;49.746;6.094;2023-01-08T09:42:03;8.30;99.90
12887;DHT22;6511;49.746;6.094;2023-01-08T09:44:36;8.30;99.90
12887;DHT22;6511;49.746;6.094;2023-01-08T09:47:03;8.30;99.90
12887;DHT22;6511;49.746;6.094;2023-01-08T09:49:38;8.30;99.90
12887;DHT22;6511;49.746;6.094;2023-01-08T09:52:05;8.40;99.90
12887;DHT22;6511;49.746;6.094;2023-01-08T09:54:31;8.40;99.90
12887;DHT22;6511;49.746;6.094;2023-01-08T09:56:58;8.40;99.90
12887;DHT22;6511;49.746;6.094;2023-01-08T09:59:24;8.40;99.90
12887;DHT22;6511;49.746;6.094;2023-01-08T10:01:51;8.30;99.90
12887;DHT22;6511;49.746;6.094;2023-01-08T10:04:19;8.40;99.90
12887;DHT22;6511;49.746;6.094;2023-01-08T10:09:20;8.70;99.90
12887;DHT22;6511;49.746;6.094;2023-01-08T10:11:47;8.80;99.90
12887;DHT22;6511;49.746;6.094;2023-01-08T10:14:29;8.80;99.90
12887;DHT22;6511;49.746;6.094;2023-01-08T10:16:59;8.80;99.90
12887;DHT22;6511;49.746;6.094;2023-01-08T10:19:27;8.70;99.90
12887;DHT22;6511;49.746;6.094;2023-01-08T10:21:53;8.70;99.90
12887;DHT22;6511;49.746;6.094;2023-01-08T10:24:31;8.70;99.90
12887;DHT22;6511;49.746;6.094;2023-01-08T10:27:09;8.70;99.90
12887;DHT22;6511;49.746;6.094;2023-01-08T10:29:37;8.60;99.90
12887;DHT22;6511;49.746;6.094;2023-01-08T10:32:15;8.60;99.90
12887;DHT22;6511;49.746;6.094;2023-01-08T10:34:48;8.60;99.90
12887;DHT22;6511;49.746;6.094;2023-01-08T10:37:26;8.60;99.90
12887;DHT22;6511;49.746;6.094;2023-01-08T10:39:55;8.50;99.90
12887;DHT22;6511;49.746;6.094;2023-01-08T10:42:24;8.50;99.90
12887;DHT22;6511;49.746;6.094;2023-01-08T10:44:59;8.40;99.90
12887;DHT22;6511;49.746;6.094;2023-01-08T10:47:27;8.50;99.90
12887;DHT22;6511;49.746;6.094;2023-01-08T10:49:53;8.50;99.90
12887;DHT22;6511;49.746;6.094;2023-01-08T10:52:31;8.40;99.90
12887;DHT22;6511;49.746;6.094;2023-01-08T10:55:33;8.30;99.90
12887;DHT22;6511;49.746;6.094;2023-01-08T10:58:14;8.30;99.90
12887;DHT22;6511;49.746;6.094;2023-01-08T11:00:40;8.30;99.90
12887;DHT22;6511;49.746;6.094;2023-01-08T11:03:27;8.20;99.90
12887;DHT22;6511;49.746;6.094;2023-01-08T11:05:53;8.20;99.90
12887;DHT22;6511;49.746;6.094;2023-01-08T11:08:20;8.20;99.90
12887;DHT22;6511;49.746;6.094;2023-01-08T11:10:54;8.20;99.90
12887;DHT22;6511;49.746;6.094;2023-01-08T11:13:20;8.20;99.90
12887;DHT22;6511;49.746;6.094;2023-01-08T11:15:46;8.20;99.90
12887;DHT22;6511;49.746;6.094;2023-01-08T11:18:27;8.30;99.90
12887;DHT22;6511;49.746;6.094;2023-01-08T11:20:56;8.30;99.90
12887;DHT22;6511;49.746;6.094;2023-01-08T11:23:30;8.40;99.90
12887;DHT22;6511;49.746;6.094;2023-01-08T11:26:07;8.50;99.90
12887;DHT22;6511;49.746;6.094;2023-01-08T11:31:53;8.60;99.90
12887;DHT22;6511;49.746;6.094;2023-01-08T11:37:27;8.70;99.90
12887;DHT22;6511;49.746;6.094;2023-01-08T11:39:54;8.60;99.90
12887;DHT22;6511;49.746;6.094;2023-01-08T11:50:29;8.50;99.90
12887;DHT22;6511;49.746;6.094;2023-01-08T11:56:13;8.40;99.90
12887;DHT22;6511;49.746;6.094;2023-01-08T11:59:16;8.50;99.90
12887;DHT22;6511;49.746;6.094;2023-01-08T12:09:42;8.70;99.90
12887;DHT22;6511;49.746;6.094;2023-01-08T12:20:36;8.90;99.90
12887;DHT22;6511;49.746;6.094;2023-01-08T12:26:17;8.80;99.90
12887;DHT22;6511;49.746;6.094;2023-01-08T12:31:39;8.80;99.90
12887;DHT22;6511;49.746;6.094;2023-01-08T12:34:11;8.90;99.90
12887;DHT22;6511;49.746;6.094;2023-01-08T12:36:40;8.80;99.90
12887;DHT22;6511;49.746;6.094;2023-01-08T12:39:37;8.80;99.90
12887;DHT22;6511;49.746;6.094;2023-01-08T12:42:12;8.70;99.90
12887;DHT22;6511;49.746;6.094;2023-01-08T12:44:39;8.80;99.90
12887;DHT22;6511;49.746;6.094;2023-01-08T12:47:06;8.80;99.90
12887;DHT22;6511;49.746;6.094;2023-01-08T12:49:48;8.90;99.90
12887;DHT22;6511;49.746;6.094;2023-01-08T12:52:26;9.00;99.90
12887;DHT22;6511;49.746;6.094;2023-01-08T12:55:02;9.10;99.90
12887;DHT22;6511;49.746;6.094;2023-01-08T12:57:36;9.10;99.90
12887;DHT22;6511;49.746;6.094;2023-01-08T13:02:50;8.90;99.90
12887;DHT22;6511;49.746;6.094;2023-01-08T13:07:48;8.90;99.90
12887;DHT22;6511;49.746;6.094;2023-01-08T13:12:50;9.00;99.90
12887;DHT22;6511;49.746;6.094;2023-01-08T13:15:24;9.10;99.90
12887;DHT22;6511;49.746;6.094;2023-01-08T13:18:36;9.20;99.90
12887;DHT22;6511;49.746;6.094;2023-01-08T13:20:37;9.20;99.90
12887;DHT22;6511;49.746;6.094;2023-01-08T13:23:04;9.30;99.90
12887;DHT22;6511;49.746;6.094;2023-01-08T13:25:36;9.20;99.90
12887;DHT22;6511;49.746;6.094;2023-01-08T13:33:44;9.30;99.90
12887;DHT22;6511;49.746;6.094;2023-01-08T13:38:41;9.40;99.90
12887;DHT22;6511;49.746;6.094;2023-01-08T13:41:25;9.30;99.90
12887;DHT22;6511;49.746;6.094;2023-01-08T13:44:05;9.30;99.90
12887;DHT22;6511;49.746;6.094;2023-01-08T13:46:35;9.40;99.90
12887;DHT22;6511;49.746;6.094;2023-01-08T13:49:17;9.50;99.90
12887;DHT22;6511;49.746;6.094;2023-01-08T13:51:46;9.40;99.90
12887;DHT22;6511;49.746;6.094;2023-01-08T13:56:40;9.40;99.90
12887;DHT22;6511;49.746;6.094;2023-01-08T14:02:00;9.40;99.90
12887;DHT22;6511;49.746;6.094;2023-01-08T14:04:26;9.40;99.90
12887;DHT22;6511;49.746;6.094;2023-01-08T14:06:52;9.40;99.90
12887;DHT22;6511;49.746;6.094;2023-01-08T14:09:23;9.30;99.90
12887;DHT22;6511;49.746;6.094;2023-01-08T14:11:53;9.20;99.90
12887;DHT22;6511;49.746;6.094;2023-01-08T14:14:21;9.30;99.90
12887;DHT22;6511;49.746;6.094;2023-01-08T14:16:49;9.20;99.90
12887;DHT22;6511;49.746;6.094;2023-01-08T14:19:23;9.30;99.90
12887;DHT22;6511;49.746;6.094;2023-01-08T14:21:54;9.40;99.90
12887;DHT22;6511;49.746;6.094;2023-01-08T14:24:22;9.50;99.90
12887;DHT22;6511;49.746;6.094;2023-01-08T14:26:54;9.50;99.90
12887;DHT22;6511;49.746;6.094;2023-01-08T14:29:26;9.50;99.90
12887;DHT22;6511;49.746;6.094;2023-01-08T14:31:54;9.50;99.90
12887;DHT22;6511;49.746;6.094;2023-01-08T14:34:21;9.40;99.90
12887;DHT22;6511;49.746;6.094;2023-01-08T14:36:52;9.50;99.90
12887;DHT22;6511;49.746;6.094;2023-01-08T14:39:32;9.40;99.90
12887;DHT22;6511;49.746;6.094;2023-01-08T14:42:16;9.40;99.90
12887;DHT22;6511;49.746;6.094;2023-01-08T14:45:04;9.50;99.90
12887;DHT22;6511;49.746;6.094;2023-01-08T14:47:39;9.40;99.90
12887;DHT22;6511;49.746;6.094;2023-01-08T14:50:20;9.40;99.90
12887;DHT22;6511;49.746;6.094;2023-01-08T14:52:49;9.40;99.90
12887;DHT22;6511;49.746;6.094;2023-01-08T14:55:17;9.30;99.90
12887;DHT22;6511;49.746;6.094;2023-01-08T14:57:52;9.20;99.90
12887;DHT22;6511;49.746;6.094;2023-01-08T15:00:26;9.10;99.90
12887;DHT22;6511;49.746;6.094;2023-01-08T15:02:52;9.10;99.90
12887;DHT22;6511;49.746;6.094;2023-01-08T15:05:29;9.10;99.90
12887;DHT22;6511;49.746;6.094;2023-01-08T15:07:59;9.10;99.90
12887;DHT22;6511;49.746;6.094;2023-01-08T15:10:34;9.00;99.90
12887;DHT22;6511;49.746;6.094;2023-01-08T15:13:01;9.00;99.90
12887;DHT22;6511;49.746;6.094;2023-01-08T15:15:29;9.00;99.90
12887;DHT22;6511;49.746;6.094;2023-01-08T15:17:56;9.00;99.90
12887;DHT22;6511;49.746;6.094;2023-01-08T15:20:25;9.00;99.90
12887;DHT22;6511;49.746;6.094;2023-01-08T15:22:52;9.00;99.90
12887;DHT22;6511;49.746;6.094;2023-01-08T15:25:27;9.00;99.90
12887;DHT22;6511;49.746;6.094;2023-01-08T15:27:59;9.00;99.90
12887;DHT22;6511;49.746;6.094;2023-01-08T15:30:34;8.90;99.90
12887;DHT22;6511;49.746;6.094;2023-01-08T15:33:18;8.90;99.90
12887;DHT22;6511;49.746;6.094;2023-01-08T15:35:44;8.80;99.90
12887;DHT22;6511;49.746;6.094;2023-01-08T15:38:11;8.80;99.90
12887;DHT22;6511;49.746;6.094;2023-01-08T15:40:36;8.80;99.90
12887;DHT22;6511;49.746;6.094;2023-01-08T15:43:02;8.80;99.90
12887;DHT22;6511;49.746;6.094;2023-01-08T15:45:42;8.70;99.90
12887;DHT22;6511;49.746;6.094;2023-01-08T15:48:09;8.70;99.90
12887;DHT22;6511;49.746;6.094;2023-01-08T15:50:37;8.70;99.90
12887;DHT22;6511;49.746;6.094;2023-01-08T15:53:06;8.70;99.90
12887;DHT22;6511;49.746;6.094;2023-01-08T15:55:34;8.60;99.90
12887;DHT22;6511;49.746;6.094;2023-01-08T15:58:00;8.60;99.90
12887;DHT22;6511;49.746;6.094;2023-01-08T16:00:26;8.60;99.90
12887;DHT22;6511;49.746;6.094;2023-01-08T16:02:52;8.60;99.90
12887;DHT22;6511;49.746;6.094;2023-01-08T16:05:19;8.60;99.90
12887;DHT22;6511;49.746;6.094;2023-01-08T16:07:46;8.60;99.90
12887;DHT22;6511;49.746;6.094;2023-01-08T16:10:13;8.60;99.90
12887;DHT22;6511;49.746;6.094;2023-01-08T16:12:39;8.50;99.90
12887;DHT22;6511;49.746;6.094;2023-01-08T16:15:05;8.50;99.90
12887;DHT22;6511;49.746;6.094;2023-01-08T16:17:34;8.50;99.90
12887;DHT22;6511;49.746;6.094;2023-01-08T16:20:01;8.40;99.90
12887;DHT22;6511;49.746;6.094;2023-01-08T16:22:27;8.30;99.90
12887;DHT22;6511;49.746;6.094;2023-01-08T16:24:52;8.10;99.90
12887;DHT22;6511;49.746;6.094;2023-01-08T16:27:18;8.10;99.90
12887;DHT22;6511;49.746;6.094;2023-01-08T16:29:43;8.00;99.90
12887;DHT22;6511;49.746;6.094;2023-01-08T16:32:09;8.00;99.90
12887;DHT22;6511;49.746;6.094;2023-01-08T16:34:34;7.90;99.90
12887;DHT22;6511;49.746;6.094;2023-01-08T16:37:00;7.90;99.90
12887;DHT22;6511;49.746;6.094;2023-01-08T16:39:25;7.90;99.90
12887;DHT22;6511;49.746;6.094;2023-01-08T16:41:51;8.00;99.90
12887;DHT22;6511;49.746;6.094;2023-01-08T16:44:20;8.00;99.90
12887;DHT22;6511;49.746;6.094;2023-01-08T16:46:46;8.00;99.90
12887;DHT22;6511;49.746;6.094;2023-01-08T16:49:12;8.00;99.90
12887;DHT22;6511;49.746;6.094;2023-01-08T16:51:38;7.90;99.90
12887;DHT22;6511;49.746;6.094;2023-01-08T16:54:04;8.00;99.90
12887;DHT22;6511;49.746;6.094;2023-01-08T16:56:29;8.00;99.90
12887;DHT22;6511;49.746;6.094;2023-01-08T16:58:55;8.00;99.90
12887;DHT22;6511;49.746;6.094;2023-01-08T17:01:21;8.00;99.90
12887;DHT22;6511;49.746;6.094;2023-01-08T17:03:47;8.10;99.90
12887;DHT22;6511;49.746;6.094;2023-01-08T17:06:13;8.10;99.90
12887;DHT22;6511;49.746;6.094;2023-01-08T17:08:40;8.10;99.90
12887;DHT22;6511;49.746;6.094;2023-01-08T17:11:12;8.10;99.90
12887;DHT22;6511;49.746;6.094;2023-01-08T17:13:38;8.10;99.90
12887;DHT22;6511;49.746;6.094;2023-01-08T17:16:05;8.10;99.90
12887;DHT22;6511;49.746;6.094;2023-01-08T17:18:31;8.10;99.90
12887;DHT22;6511;49.746;6.094;2023-01-08T17:20:56;8.10;99.90
12887;DHT22;6511;49.746;6.094;2023-01-08T17:23:22;8.10;99.90
12887;DHT22;6511;49.746;6.094;2023-01-08T17:25:54;8.10;99.90
12887;DHT22;6511;49.746;6.094;2023-01-08T17:28:21;8.20;99.90
12887;DHT22;6511;49.746;6.094;2023-01-08T17:30:50;8.20;99.90